createdAt,value
2023-04-08T00:00:44.254Z,44.27
2023-04-08T00:03:10.078Z,44.05
2023-04-08T00:05:35.770Z,44.09
2023-04-08T00:08:01.421Z,44.24
2023-04-08T00:10:27.080Z,44.10
2023-04-08T00:12:52.725Z,44.24
2023-04-08T00:15:18.390Z,44.32
2023-04-08T00:17:44.752Z,43.96
2023-04-08T00:20:10.812Z,44.30
2023-04-08T00:22:36.459Z,44.24
2023-04-08T00:25:02.152Z,44.31
2023-04-08T00:27:28.000Z,44.09
2023-04-08T00:29:53.666Z,44.13
2023-04-08T00:32:19.479Z,43.99
2023-04-08T00:34:45.173Z,44.13
2023-04-08T00:37:11.180Z,44.19
2023-04-08T00:39:37.179Z,44.15
2023-04-08T00:42:02.914Z,44.18
2023-04-08T00:44:28.658Z,44.09
2023-04-08T00:46:54.475Z,44.10
2023-04-08T00:49:20.164Z,44.04
2023-04-08T00:51:45.828Z,44.09
2023-04-08T00:54:11.470Z,44.15
2023-04-08T00:56:37.262Z,44.35
2023-04-08T00:59:03.184Z,43.96
2023-04-08T01:01:51.046Z,44.24
2023-04-08T01:04:43.677Z,44.01
2023-04-08T01:07:17.096Z,44.07
2023-04-08T01:09:49.470Z,44.08
2023-04-08T01:12:21.361Z,44.36
2023-04-08T01:14:48.092Z,43.96
2023-04-08T01:17:14.563Z,44.14
2023-04-08T01:19:43.995Z,44.23
2023-04-08T01:22:32.121Z,43.97
2023-04-08T01:25:04.913Z,44.09
2023-04-08T01:27:31.164Z,44.21
2023-04-08T01:29:57.819Z,44.08
2023-04-08T01:32:24.463Z,44.00
2023-04-08T01:34:50.620Z,44.05
2023-04-08T01:37:16.713Z,44.09
2023-04-08T01:39:43.210Z,43.86
2023-04-08T01:42:09.423Z,44.25
2023-04-08T01:44:35.339Z,44.26
2023-04-08T01:47:01.612Z,44.06
2023-04-08T01:49:28.734Z,43.98
2023-04-08T01:51:56.224Z,43.95
2023-04-08T01:54:21.934Z,44.16
2023-04-08T01:56:48.717Z,44.21
2023-04-08T01:59:16.211Z,43.92
2023-04-08T02:01:43.719Z,44.17
2023-04-08T02:04:09.553Z,43.90
2023-04-08T02:06:35.612Z,44.10
2023-04-08T02:09:01.332Z,44.07
2023-04-08T02:11:28.444Z,44.22
2023-04-08T02:13:54.592Z,43.92
2023-04-08T02:16:23.676Z,44.17
2023-04-08T02:18:56.341Z,44.13
2023-04-08T02:21:27.035Z,44.37
2023-04-08T02:23:53.840Z,43.97
2023-04-08T02:26:20.432Z,44.08
2023-04-08T02:28:47.861Z,43.96
2023-04-08T02:31:13.948Z,44.11
2023-04-08T02:33:40.832Z,44.04
2023-04-08T02:36:07.005Z,43.76
2023-04-08T02:38:32.663Z,43.98
2023-04-08T02:40:58.396Z,44.27
2023-04-08T02:43:30.926Z,44.19
2023-04-08T02:46:02.184Z,44.35
2023-04-08T02:48:28.181Z,44.21
2023-04-08T02:50:53.844Z,44.16
2023-04-08T02:53:21.317Z,44.13
2023-04-08T02:55:46.953Z,44.06
2023-04-08T02:58:12.588Z,44.10
2023-04-08T03:00:38.914Z,44.12
2023-04-08T03:03:05.841Z,44.19
2023-04-08T03:05:32.008Z,43.78
2023-04-08T03:07:57.718Z,44.14
2023-04-08T03:10:23.417Z,44.19
2023-04-08T03:12:49.148Z,43.87
2023-04-08T03:15:14.913Z,44.07
2023-04-08T03:17:40.599Z,44.07
2023-04-08T03:20:07.023Z,44.15
2023-04-08T03:22:32.926Z,44.13
2023-04-08T03:24:58.696Z,44.00
2023-04-08T03:27:24.601Z,44.08
2023-04-08T03:29:50.257Z,43.88
2023-04-08T03:32:15.949Z,43.98
2023-04-08T03:34:41.600Z,44.00
2023-04-08T03:37:07.420Z,43.93
2023-04-08T03:39:33.118Z,44.23
2023-04-08T03:42:00.136Z,43.94
2023-04-08T03:44:26.368Z,43.95
2023-04-08T03:46:52.026Z,44.02
2023-04-08T03:49:17.785Z,43.93
2023-04-08T03:51:43.424Z,44.11
2023-04-08T03:54:09.072Z,44.11
2023-04-08T03:56:34.723Z,43.99
2023-04-08T03:59:00.387Z,44.23
2023-04-08T04:01:26.019Z,44.15
2023-04-08T04:03:51.903Z,44.26
2023-04-08T04:06:17.698Z,44.10
2023-04-08T04:08:43.351Z,44.20
2023-04-08T04:11:09.015Z,44.11
2023-04-08T04:13:34.744Z,44.21
2023-04-08T04:16:00.479Z,44.23
2023-04-08T04:18:26.230Z,44.08
2023-04-08T04:20:51.902Z,43.94
2023-04-08T04:23:17.559Z,44.14
2023-04-08T04:25:43.553Z,44.16
2023-04-08T04:28:09.338Z,44.21
2023-04-08T04:30:37.637Z,44.05
2023-04-08T04:33:03.952Z,43.99
2023-04-08T04:35:29.786Z,44.00
2023-04-08T04:37:56.013Z,44.13
2023-04-08T04:40:21.657Z,43.90
2023-04-08T04:42:47.302Z,44.09
2023-04-08T04:45:13.298Z,44.21
2023-04-08T04:47:38.956Z,44.19
2023-04-08T04:50:05.281Z,44.08
2023-04-08T04:52:31.144Z,43.97
2023-04-08T04:54:57.362Z,44.41
2023-04-08T04:57:23.164Z,44.12
2023-04-08T04:59:48.821Z,44.05
2023-04-08T05:02:14.646Z,44.28
2023-04-08T05:04:40.406Z,44.04
2023-04-08T05:07:06.089Z,44.20
2023-04-08T05:09:31.740Z,44.12
2023-04-08T05:11:57.384Z,44.26
2023-04-08T05:14:23.030Z,44.11
2023-04-08T05:16:48.665Z,44.26
2023-04-08T05:19:14.334Z,44.13
2023-04-08T05:21:40.273Z,44.09
2023-04-08T05:24:05.927Z,44.15
2023-04-08T05:26:32.179Z,44.01
2023-04-08T05:28:57.860Z,44.06
2023-04-08T05:31:23.819Z,44.08
2023-04-08T05:33:49.492Z,44.03
2023-04-08T05:36:15.218Z,44.12
2023-04-08T05:38:43.427Z,43.98
2023-04-08T05:41:09.583Z,44.17
2023-04-08T05:43:35.769Z,44.23
2023-04-08T05:46:09.460Z,43.98
2023-04-08T05:48:35.566Z,44.29
2023-04-08T05:51:01.393Z,44.05
2023-04-08T05:53:27.133Z,43.99
2023-04-08T05:55:52.838Z,44.05
2023-04-08T05:58:18.472Z,44.06
2023-04-08T06:00:44.099Z,44.26
2023-04-08T06:03:10.051Z,44.54
2023-04-08T06:05:35.858Z,44.21
2023-04-08T06:08:01.499Z,44.43
2023-04-08T06:10:27.148Z,44.01
2023-04-08T06:12:52.801Z,44.09
2023-04-08T06:15:18.520Z,44.00
2023-04-08T06:17:44.236Z,44.26
2023-04-08T06:20:10.118Z,44.12
2023-04-08T06:22:35.830Z,44.30
2023-04-08T06:25:01.842Z,44.35
2023-04-08T06:27:27.589Z,44.28
2023-04-08T06:29:54.432Z,44.18
2023-04-08T06:32:20.811Z,44.24
2023-04-08T06:34:47.233Z,44.27
2023-04-08T06:37:12.979Z,44.24
2023-04-08T06:39:38.607Z,44.27
2023-04-08T06:42:04.281Z,44.09
2023-04-08T06:44:30.121Z,44.04
2023-04-08T06:46:55.757Z,44.04
2023-04-08T06:49:21.663Z,44.26
2023-04-08T06:51:47.997Z,44.25
2023-04-08T06:54:13.639Z,44.10
2023-04-08T06:56:39.304Z,44.30
2023-04-08T06:59:05.754Z,44.11
2023-04-08T07:01:31.511Z,44.03
2023-04-08T07:03:57.680Z,44.09
2023-04-08T07:06:23.502Z,44.27
2023-04-08T07:08:49.304Z,44.01
2023-04-08T07:11:15.420Z,44.17
2023-04-08T07:13:41.073Z,44.18
2023-04-08T07:16:07.029Z,44.26
2023-04-08T07:18:32.668Z,44.26
2023-04-08T07:21:00.123Z,44.51
2023-04-08T07:23:26.360Z,44.09
2023-04-08T07:25:53.112Z,44.10
2023-04-08T07:28:19.651Z,44.02
2023-04-08T07:30:45.480Z,44.09
2023-04-08T07:33:11.257Z,44.03
2023-04-08T07:35:37.082Z,43.99
2023-04-08T07:38:02.955Z,44.27
2023-04-08T07:40:29.217Z,44.37
2023-04-08T07:42:55.211Z,44.14
2023-04-08T07:45:20.899Z,44.20
2023-04-08T07:47:46.553Z,44.20
2023-04-08T07:50:12.476Z,44.20
2023-04-08T07:52:38.213Z,44.36
2023-04-08T07:55:05.070Z,44.11
2023-04-08T07:57:31.333Z,44.02
2023-04-08T07:59:57.290Z,44.26
2023-04-08T08:02:23.306Z,44.07
2023-04-08T08:04:49.054Z,44.20
2023-04-08T08:07:14.895Z,44.35
2023-04-08T08:09:40.531Z,44.22
2023-04-08T08:12:06.180Z,44.28
2023-04-08T08:14:31.836Z,44.33
2023-04-08T08:16:57.911Z,44.21
2023-04-08T08:19:23.562Z,44.16
2023-04-08T08:21:49.223Z,44.21
2023-04-08T08:24:15.753Z,44.17
2023-04-08T08:26:41.659Z,44.28
2023-04-08T08:29:07.880Z,44.10
2023-04-08T08:31:34.189Z,44.43
2023-04-08T08:33:59.909Z,44.10
2023-04-08T08:36:26.701Z,44.24
2023-04-08T08:38:53.396Z,44.32
2023-04-08T08:41:22.091Z,44.21
2023-04-08T08:43:47.984Z,44.38
2023-04-08T08:46:16.718Z,44.35
2023-04-08T08:48:43.123Z,44.13
2023-04-08T08:51:10.146Z,44.34
2023-04-08T08:53:36.244Z,44.24
2023-04-08T08:58:30.831Z,44.34
2023-04-08T09:00:56.491Z,44.25
2023-04-08T09:03:24.977Z,44.33
2023-04-08T09:05:53.788Z,44.43
2023-04-08T09:08:36.120Z,44.27
2023-04-08T09:11:18.572Z,44.26
2023-04-08T09:13:45.154Z,44.22
2023-04-08T09:16:14.267Z,44.41
2023-04-08T09:18:42.482Z,44.20
2023-04-08T09:21:08.138Z,44.30
2023-04-08T09:23:46.193Z,44.43
2023-04-08T09:26:14.117Z,44.19
2023-04-08T09:28:40.851Z,44.36
2023-04-08T09:31:23.188Z,44.24
2023-04-08T09:33:50.299Z,44.37
2023-04-08T09:36:16.621Z,44.19
2023-04-08T09:38:43.017Z,44.42
2023-04-08T09:41:13.324Z,44.20
2023-04-08T09:43:48.443Z,44.20
2023-04-08T09:46:16.315Z,44.40
2023-04-08T09:48:54.500Z,44.37
2023-04-08T09:51:22.695Z,44.18
2023-04-08T09:53:55.589Z,44.52
2023-04-08T09:56:21.822Z,44.46
2023-04-08T09:58:58.634Z,44.50
2023-04-08T10:01:28.513Z,44.21
2023-04-08T10:03:56.490Z,44.42
2023-04-08T10:06:27.635Z,44.30
2023-04-08T10:08:55.446Z,44.40
2023-04-08T10:11:21.286Z,44.14
2023-04-08T10:13:47.322Z,44.21
2023-04-08T10:16:18.270Z,44.45
2023-04-08T10:18:44.579Z,44.17
2023-04-08T10:21:31.802Z,44.39
2023-04-08T10:23:59.178Z,44.47
2023-04-08T10:26:33.646Z,44.43
2023-04-08T10:31:54.302Z,44.42
2023-04-08T10:34:22.077Z,44.41
2023-04-08T10:36:48.160Z,44.20
2023-04-08T10:39:15.087Z,44.30
2023-04-08T10:41:42.430Z,44.33
2023-04-08T10:44:25.472Z,44.38
2023-04-08T10:46:51.945Z,44.43
2023-04-08T10:49:17.949Z,44.30
2023-04-08T10:51:44.223Z,44.33
2023-04-08T10:54:11.653Z,44.49
2023-04-08T10:56:52.766Z,44.53
2023-04-08T10:59:33.436Z,44.29
2023-04-08T11:02:00.553Z,44.18
2023-04-08T11:04:26.488Z,44.23
2023-04-08T11:06:52.897Z,44.56
2023-04-08T11:09:18.549Z,44.51
2023-04-08T11:11:45.363Z,44.51
2023-04-08T11:14:11.677Z,44.30
2023-04-08T11:16:38.176Z,44.51
2023-04-08T11:19:04.836Z,44.37
2023-04-08T11:21:32.444Z,44.27
2023-04-08T11:23:58.133Z,44.28
2023-04-08T11:26:24.864Z,44.30
2023-04-08T11:28:50.966Z,44.45
2023-04-08T11:31:17.776Z,44.21
2023-04-08T11:33:45.473Z,44.33
2023-04-08T11:36:11.699Z,44.42
2023-04-08T11:38:39.630Z,44.31
2023-04-08T11:41:05.312Z,44.46
2023-04-08T11:43:30.970Z,44.34
2023-04-08T11:45:56.876Z,44.29
2023-04-08T11:48:22.957Z,44.45
2023-04-08T11:51:02.723Z,44.35
2023-04-08T11:53:28.799Z,44.55
2023-04-08T11:55:55.181Z,44.24
2023-04-08T11:58:20.887Z,44.37
2023-04-08T12:00:46.709Z,44.47
2023-04-08T12:03:12.739Z,44.43
2023-04-08T12:05:38.748Z,44.28
2023-04-08T12:08:04.435Z,44.33
2023-04-08T12:10:30.426Z,44.48
2023-04-08T12:12:56.097Z,44.62
2023-04-08T12:15:21.759Z,44.56
2023-04-08T12:17:47.469Z,44.39
2023-04-08T12:20:13.185Z,44.38
2023-04-08T12:22:39.088Z,44.50
2023-04-08T12:25:05.437Z,44.37
2023-04-08T12:27:32.625Z,44.35
2023-04-08T12:29:59.036Z,44.48
2023-04-08T12:32:24.872Z,44.53
2023-04-08T12:34:51.056Z,44.27
2023-04-08T12:37:16.736Z,44.60
2023-04-08T12:39:42.405Z,44.56
2023-04-08T12:42:08.271Z,44.44
2023-04-08T12:44:33.988Z,44.30
2023-04-08T12:46:59.733Z,44.55
2023-04-08T12:49:26.284Z,44.45
2023-04-08T12:51:52.802Z,44.55
2023-04-08T12:54:19.105Z,44.44
2023-04-08T12:56:44.858Z,44.36
2023-04-08T12:59:10.519Z,44.43
2023-04-08T13:01:36.289Z,44.30
2023-04-08T13:04:02.298Z,44.69
2023-04-08T13:06:28.190Z,44.37
2023-04-08T13:08:54.123Z,44.61
2023-04-08T13:11:20.551Z,44.38
2023-04-08T13:13:46.309Z,44.38
2023-04-08T13:16:13.491Z,44.64
2023-04-08T13:18:40.391Z,44.43
2023-04-08T13:21:06.630Z,44.53
2023-04-08T13:23:32.369Z,44.63
2023-04-08T13:25:58.188Z,44.47
2023-04-08T13:28:23.891Z,44.60
2023-04-08T13:30:49.547Z,44.46
2023-04-08T13:33:15.396Z,44.46
2023-04-08T13:35:41.078Z,44.51
2023-04-08T13:38:06.758Z,44.67
2023-04-08T13:40:32.487Z,44.34
2023-04-08T13:42:58.132Z,44.56
2023-04-08T13:45:23.898Z,44.59
2023-04-08T13:47:49.625Z,44.46
2023-04-08T13:50:15.489Z,44.00
2023-04-08T13:52:41.220Z,44.69
2023-04-08T13:55:07.291Z,44.62
2023-04-08T13:57:32.968Z,44.54
2023-04-08T13:59:58.630Z,44.65
2023-04-08T14:02:24.320Z,44.68
2023-04-08T14:04:50.176Z,44.69
2023-04-08T14:07:15.962Z,44.44
2023-04-08T14:09:41.598Z,44.42
2023-04-08T14:12:07.267Z,44.58
2023-04-08T14:14:32.905Z,44.43
2023-04-08T14:16:58.585Z,44.41
2023-04-08T14:19:24.551Z,44.55
2023-04-08T14:21:50.468Z,44.47
2023-04-08T14:24:16.144Z,44.58
2023-04-08T14:26:41.820Z,44.42
2023-04-08T14:29:07.633Z,44.52
2023-04-08T14:31:33.958Z,44.58
2023-04-08T14:34:00.184Z,44.40
2023-04-08T14:36:27.096Z,44.70
2023-04-08T14:38:53.431Z,44.43
2023-04-08T14:41:19.218Z,44.38
2023-04-08T14:43:44.868Z,44.66
2023-04-08T14:46:10.602Z,44.37
2023-04-08T14:48:36.313Z,44.64
2023-04-08T14:51:01.960Z,44.41
2023-04-08T14:53:27.608Z,44.68
2023-04-08T14:55:53.245Z,44.51
2023-04-08T14:58:19.966Z,44.77
2023-04-08T15:00:46.939Z,44.45
2023-04-08T15:03:13.612Z,44.42
2023-04-08T15:05:39.572Z,44.69
2023-04-08T15:08:05.366Z,44.69
2023-04-08T15:10:31.313Z,44.58
2023-04-08T15:12:57.203Z,44.73
2023-04-08T15:15:22.846Z,44.42
2023-04-08T15:17:50.235Z,44.54
2023-04-08T15:20:19.356Z,44.77
2023-04-08T15:22:45.919Z,44.67
2023-04-08T15:25:11.898Z,44.68
2023-04-08T15:27:37.877Z,44.54
2023-04-08T15:30:05.784Z,44.69
2023-04-08T15:32:32.105Z,44.73
2023-04-08T15:34:58.144Z,44.61
2023-04-08T15:37:24.083Z,44.45
2023-04-08T15:39:50.555Z,44.79
2023-04-08T15:42:16.197Z,44.70
2023-04-08T15:44:41.833Z,44.42
2023-04-08T15:47:07.540Z,44.63
2023-04-08T15:49:33.350Z,44.77
2023-04-08T15:51:59.004Z,44.78
2023-04-08T15:54:24.819Z,44.76
2023-04-08T15:56:50.474Z,44.71
2023-04-08T15:59:16.158Z,44.74
2023-04-08T16:01:41.852Z,44.54
2023-04-08T16:04:07.621Z,44.62
2023-04-08T16:06:33.757Z,44.45
2023-04-08T16:09:00.026Z,44.45
2023-04-08T16:11:26.758Z,44.70
2023-04-08T16:13:52.627Z,44.49
2023-04-08T16:16:18.884Z,44.60
2023-04-08T16:18:46.201Z,44.55
2023-04-08T16:21:13.172Z,44.54
2023-04-08T16:23:38.820Z,44.43
2023-04-08T16:26:07.103Z,44.60
2023-04-08T16:28:33.067Z,44.46
2023-04-08T16:30:58.723Z,44.80
2023-04-08T16:33:29.319Z,44.54
2023-04-08T16:35:56.177Z,44.59
2023-04-08T16:38:23.753Z,44.51
2023-04-08T16:40:49.993Z,44.71
2023-04-08T16:43:15.843Z,44.52
2023-04-08T16:45:41.548Z,44.62
2023-04-08T16:48:07.195Z,44.69
2023-04-08T16:50:32.848Z,44.54
2023-04-08T16:52:58.493Z,44.43
2023-04-08T16:55:24.125Z,44.49
2023-04-08T16:57:49.787Z,44.59
2023-04-08T17:00:16.884Z,44.70
2023-04-08T17:02:43.880Z,44.77
2023-04-08T17:05:09.665Z,44.35
2023-04-08T17:07:35.330Z,44.61
2023-04-08T17:10:01.046Z,44.68
2023-04-08T17:12:26.701Z,44.79
2023-04-08T17:14:52.395Z,44.51
2023-04-08T17:17:18.308Z,44.71
2023-04-08T17:19:43.957Z,44.56
2023-04-08T17:22:09.593Z,44.52
2023-04-08T17:24:35.239Z,44.56
2023-04-08T17:27:00.885Z,44.48
2023-04-08T17:29:26.532Z,44.60
2023-04-08T17:31:52.209Z,44.63
2023-04-08T17:34:17.857Z,44.71
2023-04-08T17:36:43.946Z,44.68
2023-04-08T17:39:10.109Z,44.57
2023-04-08T17:41:40.419Z,44.80
2023-04-08T17:44:07.082Z,44.80
2023-04-08T17:46:32.834Z,44.68
2023-04-08T17:48:58.552Z,44.80
2023-04-08T17:51:24.194Z,44.66
2023-04-08T17:53:49.988Z,44.78
2023-04-08T17:56:15.755Z,44.66
2023-04-08T17:58:41.435Z,44.62
2023-04-08T18:01:07.095Z,44.83
2023-04-08T18:03:33.314Z,44.63
2023-04-08T18:05:59.047Z,44.71
2023-04-08T18:08:24.733Z,44.56
2023-04-08T18:10:50.360Z,44.77
2023-04-08T18:13:16.005Z,44.56
2023-04-08T18:15:41.639Z,44.80
2023-04-08T18:18:07.273Z,44.52
2023-04-08T18:20:34.981Z,44.70
2023-04-08T18:23:03.021Z,44.54
2023-04-08T18:25:28.657Z,44.61
2023-04-08T18:27:54.346Z,44.53
2023-04-08T18:30:19.989Z,44.70
2023-04-08T18:32:45.716Z,44.84
2023-04-08T18:35:11.398Z,44.69
2023-04-08T18:37:37.066Z,44.57
2023-04-08T18:40:03.224Z,44.84
2023-04-08T18:42:28.858Z,44.83
2023-04-08T18:44:54.535Z,44.54
2023-04-08T18:47:20.175Z,44.70
2023-04-08T18:49:45.937Z,44.67
2023-04-08T18:52:12.559Z,44.70
2023-04-08T18:54:38.321Z,44.71
2023-04-08T18:57:03.998Z,44.68
2023-04-08T18:59:29.747Z,44.80
2023-04-08T19:01:55.709Z,44.74
2023-04-08T19:04:21.993Z,44.65
2023-04-08T19:06:47.669Z,44.69
2023-04-08T19:09:13.590Z,44.66
2023-04-08T19:11:40.177Z,44.74
2023-04-08T19:14:07.003Z,44.68
2023-04-08T19:16:34.127Z,44.79
2023-04-08T19:18:59.758Z,44.67
2023-04-08T19:21:27.213Z,44.68
2023-04-08T19:23:53.157Z,44.86
2023-04-08T19:26:19.022Z,44.76
2023-04-08T19:28:45.362Z,44.72
2023-04-08T19:31:19.513Z,44.84
2023-04-08T19:33:45.404Z,44.92
2023-04-08T19:36:11.173Z,44.60
2023-04-08T19:38:37.227Z,44.73
2023-04-08T19:41:02.917Z,44.93
2023-04-08T19:43:29.762Z,44.80
2023-04-08T19:45:56.461Z,44.80
2023-04-08T19:48:22.376Z,44.52
2023-04-08T19:50:48.796Z,44.67
2023-04-08T19:53:15.325Z,44.88
2023-04-08T19:55:41.725Z,44.87
2023-04-08T19:58:07.538Z,44.84
2023-04-08T20:00:33.432Z,44.66
2023-04-08T20:02:59.215Z,44.77
2023-04-08T20:05:25.480Z,44.88
2023-04-08T20:07:51.152Z,44.69
2023-04-08T20:10:16.789Z,44.67
2023-04-08T20:12:42.436Z,44.66
2023-04-08T20:15:13.581Z,44.79
2023-04-08T20:17:45.340Z,44.89
2023-04-08T20:20:11.520Z,44.75
2023-04-08T20:22:37.166Z,44.63
2023-04-08T20:25:04.668Z,44.92
2023-04-08T20:27:30.811Z,44.95
2023-04-08T20:29:56.447Z,44.60
2023-04-08T20:32:23.274Z,44.71
2023-04-08T20:34:49.181Z,44.73
2023-04-08T20:37:16.164Z,44.94
2023-04-08T20:39:41.800Z,44.63
2023-04-08T20:42:08.599Z,44.81
2023-04-08T20:44:34.742Z,44.91
2023-04-08T20:47:00.548Z,44.88
2023-04-08T20:49:26.207Z,44.54
2023-04-08T20:51:51.857Z,44.76
2023-04-08T20:54:17.778Z,44.93
2023-04-08T20:56:43.445Z,44.65
2023-04-08T20:59:09.253Z,44.88
2023-04-08T21:01:35.467Z,44.90
2023-04-08T21:04:02.666Z,44.78
2023-04-08T21:06:28.347Z,44.79
2023-04-08T21:08:54.209Z,44.86
2023-04-08T21:11:20.286Z,44.82
2023-04-08T21:13:48.626Z,44.79
2023-04-08T21:16:15.309Z,44.68
2023-04-08T21:18:41.057Z,44.92
2023-04-08T21:21:08.964Z,44.81
2023-04-08T21:23:34.599Z,44.74
2023-04-08T21:26:02.677Z,44.78
2023-04-08T21:28:29.026Z,44.62
2023-04-08T21:30:54.939Z,44.70
2023-04-08T21:33:20.675Z,44.52
2023-04-08T21:35:46.465Z,44.71
2023-04-08T21:38:12.135Z,44.62
2023-04-08T21:40:37.786Z,44.70
2023-04-08T21:43:03.423Z,44.92
2023-04-08T21:45:29.192Z,44.77
2023-04-08T21:47:54.920Z,44.67
2023-04-08T21:50:20.627Z,44.66
2023-04-08T21:52:46.281Z,44.86
2023-04-08T21:55:11.980Z,44.91
2023-04-08T21:57:38.412Z,44.94
2023-04-08T22:00:12.181Z,44.66
2023-04-08T22:02:39.991Z,44.70
2023-04-08T22:05:07.565Z,44.92
2023-04-08T22:07:33.226Z,44.66
2023-04-08T22:09:59.843Z,44.91
2023-04-08T22:12:27.047Z,44.78
2023-04-08T22:14:53.295Z,44.71
2023-04-08T22:17:18.945Z,44.91
2023-04-08T22:19:44.587Z,44.92
2023-04-08T22:22:10.254Z,44.60
2023-04-08T22:24:36.265Z,44.59
2023-04-08T22:27:02.679Z,44.71
2023-04-08T22:29:28.571Z,44.87
2023-04-08T22:31:54.215Z,44.88
2023-04-08T22:34:19.940Z,44.70
2023-04-08T22:36:45.702Z,45.10
2023-04-08T22:39:11.333Z,44.69
2023-04-08T22:41:36.970Z,44.68
2023-04-08T22:44:02.656Z,44.93
2023-04-08T22:46:28.351Z,44.63
2023-04-08T22:48:54.266Z,44.60
2023-04-08T22:51:20.127Z,44.69
2023-04-08T22:53:45.846Z,44.67
2023-04-08T22:56:11.612Z,44.91
2023-04-08T22:58:37.275Z,44.76
2023-04-08T23:01:10.191Z,44.75
2023-04-08T23:03:35.874Z,44.78
2023-04-08T23:06:01.523Z,44.83
2023-04-08T23:08:27.167Z,44.60
2023-04-08T23:10:52.839Z,44.81
2023-04-08T23:13:18.673Z,44.93
2023-04-08T23:15:44.354Z,45.11
2023-04-08T23:18:10.162Z,44.69
2023-04-08T23:20:35.792Z,44.81
2023-04-08T23:23:02.570Z,44.91
2023-04-08T23:25:28.507Z,44.94
2023-04-08T23:27:54.850Z,44.57
2023-04-08T23:30:20.583Z,44.96
2023-04-08T23:32:46.262Z,44.51
2023-04-08T23:35:11.944Z,44.68
2023-04-08T23:37:37.605Z,44.76
2023-04-08T23:40:03.535Z,44.99
2023-04-08T23:42:29.180Z,44.64
2023-04-08T23:44:54.900Z,44.75
2023-04-08T23:47:21.083Z,44.66
2023-04-08T23:49:46.735Z,44.58
2023-04-08T23:52:12.473Z,44.73
2023-04-08T23:54:39.156Z,44.81
2023-04-08T23:57:04.803Z,44.82
2023-04-08T23:59:30.748Z,44.66
